sensor_id;sensor_type;location;lat;lon;timestamp;P1;durP1;ratioP1;P2;durP2;ratioP2
43606;SDS011;29197;44.788;10.366;2023-07-31T00:01:12;3.72;;;2.50;;
43606;SDS011;29197;44.788;10.366;2023-07-31T00:04:00;5.68;;;2.40;;
43606;SDS011;29197;44.788;10.366;2023-07-31T00:06:49;4.60;;;2.40;;
43606;SDS011;29197;44.788;10.366;2023-07-31T00:09:38;3.38;;;2.10;;
43606;SDS011;29197;44.788;10.366;2023-07-31T00:12:26;4.30;;;2.40;;
43606;SDS011;29197;44.788;10.366;2023-07-31T00:15:16;3.35;;;2.22;;
43606;SDS011;29197;44.788;10.366;2023-07-31T00:18:05;3.35;;;1.63;;
43606;SDS011;29197;44.788;10.366;2023-07-31T00:20:53;3.88;;;2.15;;
43606;SDS011;29197;44.788;10.366;2023-07-31T00:23:42;4.90;;;2.45;;
43606;SDS011;29197;44.788;10.366;2023-07-31T00:26:30;3.45;;;2.17;;
43606;SDS011;29197;44.788;10.366;2023-07-31T00:29:19;3.95;;;2.00;;
43606;SDS011;29197;44.788;10.366;2023-07-31T00:32:09;3.45;;;2.22;;
43606;SDS011;29197;44.788;10.366;2023-07-31T00:34:57;2.92;;;1.98;;
43606;SDS011;29197;44.788;10.366;2023-07-31T00:37:46;3.22;;;2.30;;
43606;SDS011;29197;44.788;10.366;2023-07-31T00:40:35;3.10;;;1.90;;
43606;SDS011;29197;44.788;10.366;2023-07-31T00:43:24;4.15;;;2.22;;
43606;SDS011;29197;44.788;10.366;2023-07-31T00:46:13;2.53;;;2.03;;
43606;SDS011;29197;44.788;10.366;2023-07-31T00:49:03;4.53;;;2.30;;
43606;SDS011;29197;44.788;10.366;2023-07-31T00:51:52;3.38;;;2.10;;
43606;SDS011;29197;44.788;10.366;2023-07-31T00:54:41;2.65;;;1.90;;
43606;SDS011;29197;44.788;10.366;2023-07-31T00:57:30;3.83;;;2.50;;
43606;SDS011;29197;44.788;10.366;2023-07-31T01:00:21;5.43;;;2.60;;
43606;SDS011;29197;44.788;10.366;2023-07-31T01:03:09;4.57;;;2.45;;
43606;SDS011;29197;44.788;10.366;2023-07-31T01:06:18;4.32;;;2.45;;
43606;SDS011;29197;44.788;10.366;2023-07-31T01:09:17;3.65;;;2.80;;
43606;SDS011;29197;44.788;10.366;2023-07-31T01:12:16;5.32;;;2.60;;
43606;SDS011;29197;44.788;10.366;2023-07-31T01:15:05;4.55;;;3.42;;
43606;SDS011;29197;44.788;10.366;2023-07-31T01:17:57;4.45;;;3.25;;
43606;SDS011;29197;44.788;10.366;2023-07-31T01:20:46;4.38;;;3.25;;
43606;SDS011;29197;44.788;10.366;2023-07-31T01:23:55;4.90;;;3.83;;
43606;SDS011;29197;44.788;10.366;2023-07-31T01:27:14;5.95;;;4.45;;
43606;SDS011;29197;44.788;10.366;2023-07-31T01:30:08;7.00;;;4.30;;
43606;SDS011;29197;44.788;10.366;2023-07-31T01:33:01;4.53;;;3.58;;
43606;SDS011;29197;44.788;10.366;2023-07-31T01:35:54;5.65;;;4.43;;
43606;SDS011;29197;44.788;10.366;2023-07-31T01:38:43;3.97;;;3.45;;
43606;SDS011;29197;44.788;10.366;2023-07-31T01:41:32;3.95;;;3.20;;
43606;SDS011;29197;44.788;10.366;2023-07-31T01:44:22;3.58;;;2.97;;
43606;SDS011;29197;44.788;10.366;2023-07-31T01:47:11;3.90;;;2.72;;
43606;SDS011;29197;44.788;10.366;2023-07-31T01:49:59;4.25;;;3.15;;
43606;SDS011;29197;44.788;10.366;2023-07-31T01:52:48;3.67;;;2.90;;
43606;SDS011;29197;44.788;10.366;2023-07-31T01:55:37;3.10;;;2.80;;
43606;SDS011;29197;44.788;10.366;2023-07-31T01:58:25;4.10;;;2.45;;
43606;SDS011;29197;44.788;10.366;2023-07-31T02:01:15;3.78;;;2.90;;
43606;SDS011;29197;44.788;10.366;2023-07-31T02:04:04;6.25;;;2.90;;
43606;SDS011;29197;44.788;10.366;2023-07-31T02:06:52;2.72;;;2.35;;
43606;SDS011;29197;44.788;10.366;2023-07-31T02:09:41;3.60;;;3.10;;
43606;SDS011;29197;44.788;10.366;2023-07-31T02:12:30;2.72;;;2.50;;
43606;SDS011;29197;44.788;10.366;2023-07-31T02:15:20;3.30;;;2.78;;
43606;SDS011;29197;44.788;10.366;2023-07-31T02:18:10;3.83;;;2.70;;
43606;SDS011;29197;44.788;10.366;2023-07-31T02:20:58;4.50;;;2.80;;
43606;SDS011;29197;44.788;10.366;2023-07-31T02:23:47;6.00;;;2.90;;
43606;SDS011;29197;44.788;10.366;2023-07-31T02:26:36;6.57;;;3.20;;
43606;SDS011;29197;44.788;10.366;2023-07-31T02:29:25;3.00;;;2.58;;
43606;SDS011;29197;44.788;10.366;2023-07-31T02:32:13;3.40;;;2.97;;
43606;SDS011;29197;44.788;10.366;2023-07-31T02:35:03;5.90;;;3.40;;
43606;SDS011;29197;44.788;10.366;2023-07-31T02:37:53;4.28;;;3.20;;
43606;SDS011;29197;44.788;10.366;2023-07-31T02:40:41;6.25;;;3.22;;
43606;SDS011;29197;44.788;10.366;2023-07-31T02:43:30;4.70;;;3.42;;
43606;SDS011;29197;44.788;10.366;2023-07-31T02:46:18;4.10;;;3.10;;
43606;SDS011;29197;44.788;10.366;2023-07-31T02:49:11;4.82;;;3.22;;
43606;SDS011;29197;44.788;10.366;2023-07-31T02:52:01;4.90;;;3.42;;
43606;SDS011;29197;44.788;10.366;2023-07-31T02:54:49;5.90;;;4.13;;
43606;SDS011;29197;44.788;10.366;2023-07-31T02:57:38;3.45;;;3.10;;
43606;SDS011;29197;44.788;10.366;2023-07-31T03:00:27;5.85;;;3.55;;
43606;SDS011;29197;44.788;10.366;2023-07-31T03:03:16;4.63;;;3.58;;
43606;SDS011;29197;44.788;10.366;2023-07-31T03:06:04;4.00;;;3.40;;
43606;SDS011;29197;44.788;10.366;2023-07-31T03:08:54;4.15;;;3.30;;
43606;SDS011;29197;44.788;10.366;2023-07-31T03:11:43;3.85;;;3.45;;
43606;SDS011;29197;44.788;10.366;2023-07-31T03:14:31;3.90;;;3.15;;
43606;SDS011;29197;44.788;10.366;2023-07-31T03:17:20;6.97;;;3.53;;
43606;SDS011;29197;44.788;10.366;2023-07-31T03:20:09;4.35;;;3.70;;
43606;SDS011;29197;44.788;10.366;2023-07-31T03:22:58;4.15;;;3.33;;
43606;SDS011;29197;44.788;10.366;2023-07-31T03:25:58;4.40;;;3.78;;
43606;SDS011;29197;44.788;10.366;2023-07-31T03:28:47;4.38;;;3.30;;
43606;SDS011;29197;44.788;10.366;2023-07-31T03:31:36;4.93;;;3.80;;
43606;SDS011;29197;44.788;10.366;2023-07-31T03:34:25;4.05;;;3.65;;
43606;SDS011;29197;44.788;10.366;2023-07-31T03:37:13;5.38;;;4.10;;
43606;SDS011;29197;44.788;10.366;2023-07-31T03:40:02;4.05;;;3.20;;
43606;SDS011;29197;44.788;10.366;2023-07-31T03:42:52;4.40;;;3.70;;
43606;SDS011;29197;44.788;10.366;2023-07-31T03:45:41;5.50;;;4.20;;
43606;SDS011;29197;44.788;10.366;2023-07-31T03:48:30;4.72;;;3.50;;
43606;SDS011;29197;44.788;10.366;2023-07-31T03:51:18;6.57;;;4.75;;
43606;SDS011;29197;44.788;10.366;2023-07-31T03:54:07;5.40;;;3.80;;
43606;SDS011;29197;44.788;10.366;2023-07-31T03:56:55;5.75;;;4.68;;
43606;SDS011;29197;44.788;10.366;2023-07-31T03:59:45;5.38;;;4.70;;
43606;SDS011;29197;44.788;10.366;2023-07-31T04:02:34;4.43;;;3.65;;
43606;SDS011;29197;44.788;10.366;2023-07-31T04:05:22;4.78;;;3.65;;
43606;SDS011;29197;44.788;10.366;2023-07-31T04:08:11;5.05;;;3.80;;
43606;SDS011;29197;44.788;10.366;2023-07-31T04:11:00;4.43;;;3.40;;
43606;SDS011;29197;44.788;10.366;2023-07-31T04:13:48;5.57;;;3.75;;
43606;SDS011;29197;44.788;10.366;2023-07-31T04:16:38;6.38;;;3.92;;
43606;SDS011;29197;44.788;10.366;2023-07-31T04:19:27;4.50;;;3.65;;
43606;SDS011;29197;44.788;10.366;2023-07-31T04:22:16;4.95;;;3.42;;
43606;SDS011;29197;44.788;10.366;2023-07-31T04:25:05;4.38;;;3.70;;
43606;SDS011;29197;44.788;10.366;2023-07-31T04:27:54;6.28;;;4.07;;
43606;SDS011;29197;44.788;10.366;2023-07-31T04:30:42;4.80;;;3.40;;
43606;SDS011;29197;44.788;10.366;2023-07-31T04:33:34;4.65;;;3.60;;
43606;SDS011;29197;44.788;10.366;2023-07-31T04:36:23;6.88;;;4.03;;
43606;SDS011;29197;44.788;10.366;2023-07-31T04:39:11;4.85;;;3.22;;
43606;SDS011;29197;44.788;10.366;2023-07-31T04:42:00;4.45;;;3.55;;
43606;SDS011;29197;44.788;10.366;2023-07-31T04:44:48;3.83;;;2.90;;
43606;SDS011;29197;44.788;10.366;2023-07-31T04:47:37;5.28;;;3.08;;
43606;SDS011;29197;44.788;10.366;2023-07-31T04:50:27;5.88;;;3.80;;
43606;SDS011;29197;44.788;10.366;2023-07-31T04:53:17;5.90;;;4.70;;
43606;SDS011;29197;44.788;10.366;2023-07-31T04:56:05;5.25;;;3.88;;
43606;SDS011;29197;44.788;10.366;2023-07-31T04:58:54;7.47;;;3.88;;
43606;SDS011;29197;44.788;10.366;2023-07-31T05:01:42;5.97;;;4.60;;
43606;SDS011;29197;44.788;10.366;2023-07-31T05:04:32;6.78;;;4.30;;
43606;SDS011;29197;44.788;10.366;2023-07-31T05:07:22;5.20;;;3.20;;
43606;SDS011;29197;44.788;10.366;2023-07-31T05:10:10;7.82;;;3.28;;
43606;SDS011;29197;44.788;10.366;2023-07-31T05:12:59;4.82;;;3.45;;
43606;SDS011;29197;44.788;10.366;2023-07-31T05:15:47;4.20;;;3.05;;
43606;SDS011;29197;44.788;10.366;2023-07-31T05:18:36;7.32;;;3.30;;
43606;SDS011;29197;44.788;10.366;2023-07-31T05:21:24;6.63;;;4.07;;
43606;SDS011;29197;44.788;10.366;2023-07-31T05:24:14;3.72;;;3.35;;
43606;SDS011;29197;44.788;10.366;2023-07-31T05:27:03;3.50;;;2.85;;
43606;SDS011;29197;44.788;10.366;2023-07-31T05:29:52;3.22;;;2.92;;
43606;SDS011;29197;44.788;10.366;2023-07-31T05:32:41;8.57;;;4.20;;
43606;SDS011;29197;44.788;10.366;2023-07-31T05:35:29;4.15;;;2.65;;
43606;SDS011;29197;44.788;10.366;2023-07-31T05:38:18;5.38;;;4.00;;
43606;SDS011;29197;44.788;10.366;2023-07-31T05:41:08;5.90;;;4.85;;
43606;SDS011;29197;44.788;10.366;2023-07-31T05:43:56;4.78;;;4.18;;
43606;SDS011;29197;44.788;10.366;2023-07-31T05:46:45;6.03;;;4.07;;
43606;SDS011;29197;44.788;10.366;2023-07-31T05:49:34;5.75;;;3.67;;
43606;SDS011;29197;44.788;10.366;2023-07-31T05:52:22;3.90;;;2.88;;
43606;SDS011;29197;44.788;10.366;2023-07-31T05:55:11;5.82;;;4.03;;
43606;SDS011;29197;44.788;10.366;2023-07-31T05:58:01;4.75;;;3.55;;
43606;SDS011;29197;44.788;10.366;2023-07-31T06:00:50;3.10;;;2.80;;
43606;SDS011;29197;44.788;10.366;2023-07-31T06:03:38;2.60;;;2.22;;
43606;SDS011;29197;44.788;10.366;2023-07-31T06:06:27;5.28;;;3.40;;
43606;SDS011;29197;44.788;10.366;2023-07-31T06:09:16;5.07;;;3.10;;
43606;SDS011;29197;44.788;10.366;2023-07-31T06:12:04;4.78;;;3.83;;
43606;SDS011;29197;44.788;10.366;2023-07-31T06:14:55;4.28;;;3.55;;
43606;SDS011;29197;44.788;10.366;2023-07-31T06:17:43;6.32;;;5.03;;
43606;SDS011;29197;44.788;10.366;2023-07-31T06:20:32;5.53;;;3.30;;
43606;SDS011;29197;44.788;10.366;2023-07-31T06:23:21;3.60;;;2.50;;
43606;SDS011;29197;44.788;10.366;2023-07-31T06:26:09;5.47;;;3.45;;
43606;SDS011;29197;44.788;10.366;2023-07-31T06:28:58;6.97;;;4.55;;
43606;SDS011;29197;44.788;10.366;2023-07-31T06:31:48;5.57;;;3.47;;
43606;SDS011;29197;44.788;10.366;2023-07-31T06:34:36;5.65;;;4.43;;
43606;SDS011;29197;44.788;10.366;2023-07-31T06:37:25;5.47;;;4.50;;
43606;SDS011;29197;44.788;10.366;2023-07-31T06:40:13;4.75;;;3.65;;
43606;SDS011;29197;44.788;10.366;2023-07-31T06:43:03;5.03;;;3.30;;
43606;SDS011;29197;44.788;10.366;2023-07-31T06:45:54;3.08;;;2.78;;
43606;SDS011;29197;44.788;10.366;2023-07-31T06:48:44;3.78;;;2.35;;
43606;SDS011;29197;44.788;10.366;2023-07-31T06:51:33;3.92;;;2.72;;
43606;SDS011;29197;44.788;10.366;2023-07-31T06:54:22;2.60;;;2.38;;
43606;SDS011;29197;44.788;10.366;2023-07-31T06:57:11;3.00;;;2.60;;
43606;SDS011;29197;44.788;10.366;2023-07-31T06:59:59;4.70;;;2.17;;
43606;SDS011;29197;44.788;10.366;2023-07-31T07:02:48;6.43;;;2.63;;
43606;SDS011;29197;44.788;10.366;2023-07-31T07:05:38;2.58;;;2.15;;
43606;SDS011;29197;44.788;10.366;2023-07-31T07:08:27;3.08;;;2.10;;
43606;SDS011;29197;44.788;10.366;2023-07-31T07:11:16;2.97;;;2.22;;
43606;SDS011;29197;44.788;10.366;2023-07-31T07:14:04;4.88;;;2.63;;
43606;SDS011;29197;44.788;10.366;2023-07-31T07:16:53;4.72;;;2.20;;
43606;SDS011;29197;44.788;10.366;2023-07-31T07:19:41;4.18;;;2.75;;
43606;SDS011;29197;44.788;10.366;2023-07-31T07:22:31;5.20;;;2.42;;
43606;SDS011;29197;44.788;10.366;2023-07-31T07:25:20;6.35;;;3.90;;
43606;SDS011;29197;44.788;10.366;2023-07-31T07:28:08;4.63;;;2.33;;
43606;SDS011;29197;44.788;10.366;2023-07-31T07:30:57;4.25;;;2.45;;
43606;SDS011;29197;44.788;10.366;2023-07-31T07:33:46;2.97;;;2.35;;
43606;SDS011;29197;44.788;10.366;2023-07-31T07:36:34;5.53;;;4.03;;
43606;SDS011;29197;44.788;10.366;2023-07-31T07:39:25;3.45;;;2.22;;
43606;SDS011;29197;44.788;10.366;2023-07-31T07:42:14;2.80;;;1.98;;
43606;SDS011;29197;44.788;10.366;2023-07-31T07:45:03;3.60;;;2.47;;
43606;SDS011;29197;44.788;10.366;2023-07-31T07:47:52;4.93;;;2.67;;
43606;SDS011;29197;44.788;10.366;2023-07-31T07:50:41;5.35;;;2.50;;
43606;SDS011;29197;44.788;10.366;2023-07-31T07:53:29;3.13;;;2.00;;
43606;SDS011;29197;44.788;10.366;2023-07-31T07:56:19;3.88;;;2.15;;
43606;SDS011;29197;44.788;10.366;2023-07-31T07:59:10;3.40;;;1.98;;
43606;SDS011;29197;44.788;10.366;2023-07-31T08:01:59;4.95;;;2.47;;
43606;SDS011;29197;44.788;10.366;2023-07-31T08:04:47;4.70;;;3.95;;
43606;SDS011;29197;44.788;10.366;2023-07-31T08:07:36;2.55;;;2.03;;
43606;SDS011;29197;44.788;10.366;2023-07-31T08:10:25;6.47;;;3.60;;
43606;SDS011;29197;44.788;10.366;2023-07-31T08:13:15;5.22;;;3.03;;
43606;SDS011;29197;44.788;10.366;2023-07-31T08:16:04;5.90;;;2.88;;
43606;SDS011;29197;44.788;10.366;2023-07-31T08:18:52;3.90;;;2.10;;
43606;SDS011;29197;44.788;10.366;2023-07-31T08:21:41;2.95;;;2.40;;
43606;SDS011;29197;44.788;10.366;2023-07-31T08:24:30;2.78;;;2.25;;
43606;SDS011;29197;44.788;10.366;2023-07-31T08:27:18;2.67;;;1.80;;
43606;SDS011;29197;44.788;10.366;2023-07-31T08:30:08;3.20;;;1.80;;
43606;SDS011;29197;44.788;10.366;2023-07-31T08:32:58;3.45;;;2.00;;
43606;SDS011;29197;44.788;10.366;2023-07-31T08:35:47;3.15;;;1.88;;
43606;SDS011;29197;44.788;10.366;2023-07-31T08:38:36;3.05;;;1.90;;
43606;SDS011;29197;44.788;10.366;2023-07-31T08:41:24;1.85;;;1.60;;
43606;SDS011;29197;44.788;10.366;2023-07-31T08:44:14;1.45;;;1.33;;
43606;SDS011;29197;44.788;10.366;2023-07-31T08:47:06;2.28;;;1.45;;
43606;SDS011;29197;44.788;10.366;2023-07-31T08:49:55;1.42;;;1.33;;
43606;SDS011;29197;44.788;10.366;2023-07-31T08:52:45;1.98;;;1.63;;
43606;SDS011;29197;44.788;10.366;2023-07-31T08:55:34;1.67;;;1.33;;
43606;SDS011;29197;44.788;10.366;2023-07-31T08:58:23;2.92;;;1.17;;
43606;SDS011;29197;44.788;10.366;2023-07-31T09:01:13;4.47;;;1.30;;
43606;SDS011;29197;44.788;10.366;2023-07-31T09:04:04;1.48;;;1.13;;
43606;SDS011;29197;44.788;10.366;2023-07-31T09:06:55;1.63;;;1.10;;
43606;SDS011;29197;44.788;10.366;2023-07-31T09:09:47;1.63;;;1.08;;
43606;SDS011;29197;44.788;10.366;2023-07-31T09:12:36;1.05;;;1.00;;
43606;SDS011;29197;44.788;10.366;2023-07-31T09:15:27;1.83;;;1.00;;
43606;SDS011;29197;44.788;10.366;2023-07-31T09:18:24;2.10;;;1.70;;
43606;SDS011;29197;44.788;10.366;2023-07-31T09:21:14;1.90;;;1.70;;
43606;SDS011;29197;44.788;10.366;2023-07-31T09:24:02;2.00;;;1.67;;
43606;SDS011;29197;44.788;10.366;2023-07-31T09:26:55;1.67;;;1.58;;
43606;SDS011;29197;44.788;10.366;2023-07-31T09:29:45;4.00;;;2.05;;
43606;SDS011;29197;44.788;10.366;2023-07-31T09:32:47;7.03;;;2.35;;
43606;SDS011;29197;44.788;10.366;2023-07-31T09:35:37;2.97;;;1.77;;
43606;SDS011;29197;44.788;10.366;2023-07-31T09:38:28;1.90;;;1.70;;
43606;SDS011;29197;44.788;10.366;2023-07-31T09:41:17;4.15;;;2.00;;
43606;SDS011;29197;44.788;10.366;2023-07-31T09:44:06;2.72;;;2.10;;
43606;SDS011;29197;44.788;10.366;2023-07-31T09:46:54;2.25;;;1.85;;
43606;SDS011;29197;44.788;10.366;2023-07-31T09:49:45;3.67;;;2.22;;
43606;SDS011;29197;44.788;10.366;2023-07-31T09:52:34;2.88;;;1.98;;
43606;SDS011;29197;44.788;10.366;2023-07-31T09:55:26;2.28;;;1.60;;
43606;SDS011;29197;44.788;10.366;2023-07-31T09:58:15;4.93;;;2.90;;
43606;SDS011;29197;44.788;10.366;2023-07-31T10:01:03;3.08;;;2.75;;
43606;SDS011;29197;44.788;10.366;2023-07-31T10:03:52;3.85;;;2.53;;
43606;SDS011;29197;44.788;10.366;2023-07-31T10:06:42;3.97;;;3.28;;
43606;SDS011;29197;44.788;10.366;2023-07-31T10:09:33;2.88;;;2.50;;
43606;SDS011;29197;44.788;10.366;2023-07-31T10:12:23;4.82;;;2.40;;
43606;SDS011;29197;44.788;10.366;2023-07-31T10:15:15;2.15;;;1.95;;
43606;SDS011;29197;44.788;10.366;2023-07-31T10:18:05;3.13;;;2.20;;
43606;SDS011;29197;44.788;10.366;2023-07-31T10:20:54;3.55;;;2.33;;
43606;SDS011;29197;44.788;10.366;2023-07-31T10:23:44;2.42;;;1.83;;
43606;SDS011;29197;44.788;10.366;2023-07-31T10:26:33;4.93;;;1.90;;
43606;SDS011;29197;44.788;10.366;2023-07-31T10:29:25;1.92;;;1.80;;
43606;SDS011;29197;44.788;10.366;2023-07-31T10:32:16;2.08;;;1.88;;
43606;SDS011;29197;44.788;10.366;2023-07-31T10:35:06;2.40;;;1.80;;
43606;SDS011;29197;44.788;10.366;2023-07-31T10:37:55;2.67;;;1.58;;
43606;SDS011;29197;44.788;10.366;2023-07-31T10:41:03;3.40;;;1.85;;
43606;SDS011;29197;44.788;10.366;2023-07-31T10:43:57;6.10;;;2.45;;
43606;SDS011;29197;44.788;10.366;2023-07-31T10:46:48;2.33;;;1.60;;
43606;SDS011;29197;44.788;10.366;2023-07-31T10:49:38;2.25;;;1.52;;
43606;SDS011;29197;44.788;10.366;2023-07-31T10:52:27;2.25;;;1.70;;
43606;SDS011;29197;44.788;10.366;2023-07-31T10:55:30;2.50;;;1.88;;
43606;SDS011;29197;44.788;10.366;2023-07-31T10:58:20;4.65;;;2.40;;
43606;SDS011;29197;44.788;10.366;2023-07-31T11:01:09;2.38;;;2.00;;
43606;SDS011;29197;44.788;10.366;2023-07-31T11:03:59;2.17;;;1.75;;
43606;SDS011;29197;44.788;10.366;2023-07-31T11:06:58;2.15;;;1.55;;
43606;SDS011;29197;44.788;10.366;2023-07-31T11:09:48;2.63;;;1.83;;
43606;SDS011;29197;44.788;10.366;2023-07-31T11:12:37;3.22;;;1.70;;
43606;SDS011;29197;44.788;10.366;2023-07-31T11:15:26;3.10;;;1.58;;
43606;SDS011;29197;44.788;10.366;2023-07-31T11:18:15;1.85;;;1.50;;
43606;SDS011;29197;44.788;10.366;2023-07-31T11:21:06;1.77;;;1.52;;
43606;SDS011;29197;44.788;10.366;2023-07-31T11:23:56;4.47;;;1.70;;
43606;SDS011;29197;44.788;10.366;2023-07-31T11:26:49;1.30;;;1.20;;
43606;SDS011;29197;44.788;10.366;2023-07-31T11:29:38;2.05;;;1.58;;
43606;SDS011;29197;44.788;10.366;2023-07-31T11:32:27;2.65;;;1.48;;
43606;SDS011;29197;44.788;10.366;2023-07-31T11:35:16;3.47;;;1.73;;
43606;SDS011;29197;44.788;10.366;2023-07-31T11:38:06;4.70;;;2.20;;
43606;SDS011;29197;44.788;10.366;2023-07-31T11:40:55;3.25;;;1.90;;
43606;SDS011;29197;44.788;10.366;2023-07-31T11:43:45;5.13;;;2.17;;
43606;SDS011;29197;44.788;10.366;2023-07-31T11:46:34;2.65;;;1.50;;
43606;SDS011;29197;44.788;10.366;2023-07-31T11:49:25;3.17;;;1.50;;
43606;SDS011;29197;44.788;10.366;2023-07-31T11:52:14;2.65;;;1.63;;
43606;SDS011;29197;44.788;10.366;2023-07-31T11:55:05;2.65;;;1.42;;
43606;SDS011;29197;44.788;10.366;2023-07-31T11:57:57;4.05;;;1.90;;
43606;SDS011;29197;44.788;10.366;2023-07-31T12:00:47;2.75;;;1.77;;
43606;SDS011;29197;44.788;10.366;2023-07-31T12:03:37;2.13;;;1.23;;
43606;SDS011;29197;44.788;10.366;2023-07-31T12:06:33;2.03;;;1.85;;
43606;SDS011;29197;44.788;10.366;2023-07-31T12:09:22;4.03;;;2.40;;
43606;SDS011;29197;44.788;10.366;2023-07-31T12:12:13;3.33;;;1.95;;
43606;SDS011;29197;44.788;10.366;2023-07-31T12:15:13;4.20;;;2.67;;
43606;SDS011;29197;44.788;10.366;2023-07-31T12:18:06;3.65;;;2.67;;
43606;SDS011;29197;44.788;10.366;2023-07-31T12:20:58;2.53;;;2.30;;
43606;SDS011;29197;44.788;10.366;2023-07-31T12:23:47;3.88;;;2.55;;
43606;SDS011;29197;44.788;10.366;2023-07-31T12:26:36;3.95;;;2.38;;
43606;SDS011;29197;44.788;10.366;2023-07-31T12:29:34;4.15;;;1.90;;
43606;SDS011;29197;44.788;10.366;2023-07-31T12:32:29;3.30;;;2.05;;
43606;SDS011;29197;44.788;10.366;2023-07-31T12:35:19;2.78;;;2.13;;
43606;SDS011;29197;44.788;10.366;2023-07-31T12:38:08;2.20;;;1.92;;
43606;SDS011;29197;44.788;10.366;2023-07-31T12:40:57;2.88;;;1.92;;
43606;SDS011;29197;44.788;10.366;2023-07-31T12:43:46;2.88;;;1.88;;
43606;SDS011;29197;44.788;10.366;2023-07-31T12:46:36;3.78;;;2.05;;
43606;SDS011;29197;44.788;10.366;2023-07-31T12:49:25;2.17;;;1.80;;
43606;SDS011;29197;44.788;10.366;2023-07-31T12:52:14;3.15;;;2.38;;
43606;SDS011;29197;44.788;10.366;2023-07-31T12:55:03;3.05;;;2.17;;
43606;SDS011;29197;44.788;10.366;2023-07-31T12:57:52;4.72;;;2.40;;
43606;SDS011;29197;44.788;10.366;2023-07-31T13:00:42;3.85;;;2.42;;
43606;SDS011;29197;44.788;10.366;2023-07-31T13:03:32;4.53;;;1.83;;
43606;SDS011;29197;44.788;10.366;2023-07-31T13:06:21;3.33;;;2.22;;
43606;SDS011;29197;44.788;10.366;2023-07-31T13:09:10;2.78;;;1.88;;
43606;SDS011;29197;44.788;10.366;2023-07-31T13:11:59;3.92;;;2.10;;
43606;SDS011;29197;44.788;10.366;2023-07-31T13:14:48;2.88;;;2.45;;
43606;SDS011;29197;44.788;10.366;2023-07-31T13:17:39;3.90;;;2.13;;
43606;SDS011;29197;44.788;10.366;2023-07-31T13:20:30;5.30;;;2.90;;
43606;SDS011;29197;44.788;10.366;2023-07-31T13:23:18;3.40;;;2.60;;
43606;SDS011;29197;44.788;10.366;2023-07-31T13:26:07;1.98;;;1.88;;
43606;SDS011;29197;44.788;10.366;2023-07-31T13:28:56;2.53;;;1.80;;
43606;SDS011;29197;44.788;10.366;2023-07-31T13:31:45;4.47;;;2.15;;
43606;SDS011;29197;44.788;10.366;2023-07-31T13:34:34;2.25;;;2.00;;
43606;SDS011;29197;44.788;10.366;2023-07-31T13:37:24;3.28;;;1.50;;
43606;SDS011;29197;44.788;10.366;2023-07-31T13:40:14;3.28;;;2.20;;
43606;SDS011;29197;44.788;10.366;2023-07-31T13:43:03;2.67;;;2.13;;
43606;SDS011;29197;44.788;10.366;2023-07-31T13:45:52;1.98;;;1.50;;
43606;SDS011;29197;44.788;10.366;2023-07-31T13:48:41;2.28;;;1.80;;
43606;SDS011;29197;44.788;10.366;2023-07-31T13:51:29;3.97;;;2.30;;
43606;SDS011;29197;44.788;10.366;2023-07-31T13:54:20;2.83;;;2.45;;
43606;SDS011;29197;44.788;10.366;2023-07-31T13:57:09;3.28;;;2.72;;
43606;SDS011;29197;44.788;10.366;2023-07-31T13:59:57;3.53;;;1.73;;
43606;SDS011;29197;44.788;10.366;2023-07-31T14:02:46;3.58;;;2.03;;
43606;SDS011;29197;44.788;10.366;2023-07-31T14:05:35;2.13;;;1.92;;
43606;SDS011;29197;44.788;10.366;2023-07-31T14:08:24;2.75;;;2.17;;
43606;SDS011;29197;44.788;10.366;2023-07-31T14:11:14;2.20;;;2.00;;
43606;SDS011;29197;44.788;10.366;2023-07-31T14:14:03;2.30;;;2.10;;
43606;SDS011;29197;44.788;10.366;2023-07-31T14:16:52;2.63;;;2.08;;
43606;SDS011;29197;44.788;10.366;2023-07-31T14:19:41;3.30;;;2.15;;
43606;SDS011;29197;44.788;10.366;2023-07-31T14:22:30;2.10;;;1.90;;
43606;SDS011;29197;44.788;10.366;2023-07-31T14:25:20;4.07;;;2.50;;
43606;SDS011;29197;44.788;10.366;2023-07-31T14:28:11;4.60;;;2.45;;
43606;SDS011;29197;44.788;10.366;2023-07-31T14:30:59;2.45;;;2.25;;
43606;SDS011;29197;44.788;10.366;2023-07-31T14:33:48;2.45;;;2.17;;
43606;SDS011;29197;44.788;10.366;2023-07-31T14:36:37;2.88;;;1.83;;
43606;SDS011;29197;44.788;10.366;2023-07-31T14:39:26;2.38;;;2.10;;
43606;SDS011;29197;44.788;10.366;2023-07-31T14:42:15;2.53;;;1.92;;
43606;SDS011;29197;44.788;10.366;2023-07-31T14:45:07;2.17;;;1.98;;
43606;SDS011;29197;44.788;10.366;2023-07-31T14:47:57;2.60;;;2.00;;
43606;SDS011;29197;44.788;10.366;2023-07-31T14:50:46;4.00;;;1.90;;
43606;SDS011;29197;44.788;10.366;2023-07-31T14:53:35;2.97;;;2.08;;
43606;SDS011;29197;44.788;10.366;2023-07-31T14:56:23;2.05;;;1.77;;
43606;SDS011;29197;44.788;10.366;2023-07-31T14:59:13;2.08;;;1.83;;
43606;SDS011;29197;44.788;10.366;2023-07-31T15:02:04;1.95;;;1.75;;
43606;SDS011;29197;44.788;10.366;2023-07-31T15:04:53;1.83;;;1.73;;
43606;SDS011;29197;44.788;10.366;2023-07-31T15:07:41;2.55;;;2.08;;
43606;SDS011;29197;44.788;10.366;2023-07-31T15:10:30;1.98;;;1.80;;
43606;SDS011;29197;44.788;10.366;2023-07-31T15:13:20;2.70;;;2.40;;
43606;SDS011;29197;44.788;10.366;2023-07-31T15:16:08;2.80;;;2.45;;
43606;SDS011;29197;44.788;10.366;2023-07-31T15:18:59;2.38;;;2.17;;
43606;SDS011;29197;44.788;10.366;2023-07-31T15:21:47;2.92;;;2.30;;
43606;SDS011;29197;44.788;10.366;2023-07-31T15:24:36;4.07;;;2.40;;
43606;SDS011;29197;44.788;10.366;2023-07-31T15:27:25;3.50;;;2.63;;
43606;SDS011;29197;44.788;10.366;2023-07-31T15:30:14;2.75;;;2.33;;
43606;SDS011;29197;44.788;10.366;2023-07-31T15:33:02;2.17;;;1.95;;
43606;SDS011;29197;44.788;10.366;2023-07-31T15:35:53;1.63;;;1.52;;
43606;SDS011;29197;44.788;10.366;2023-07-31T15:38:42;5.63;;;2.13;;
43606;SDS011;29197;44.788;10.366;2023-07-31T15:41:30;3.38;;;2.35;;
43606;SDS011;29197;44.788;10.366;2023-07-31T15:44:19;2.67;;;2.05;;
43606;SDS011;29197;44.788;10.366;2023-07-31T15:47:09;3.40;;;2.00;;
43606;SDS011;29197;44.788;10.366;2023-07-31T15:49:58;2.42;;;1.77;;
43606;SDS011;29197;44.788;10.366;2023-07-31T15:52:48;3.05;;;2.10;;
43606;SDS011;29197;44.788;10.366;2023-07-31T15:55:37;6.13;;;2.55;;
43606;SDS011;29197;44.788;10.366;2023-07-31T15:58:26;6.88;;;2.55;;
43606;SDS011;29197;44.788;10.366;2023-07-31T16:01:15;3.30;;;1.50;;
43606;SDS011;29197;44.788;10.366;2023-07-31T16:04:05;2.90;;;1.38;;
43606;SDS011;29197;44.788;10.366;2023-07-31T16:06:53;3.17;;;1.73;;
43606;SDS011;29197;44.788;10.366;2023-07-31T16:09:43;2.65;;;2.05;;
43606;SDS011;29197;44.788;10.366;2023-07-31T16:12:32;4.03;;;2.22;;
43606;SDS011;29197;44.788;10.366;2023-07-31T16:15:21;4.93;;;2.22;;
43606;SDS011;29197;44.788;10.366;2023-07-31T16:18:10;3.20;;;1.90;;
43606;SDS011;29197;44.788;10.366;2023-07-31T16:21:00;4.07;;;2.15;;
43606;SDS011;29197;44.788;10.366;2023-07-31T16:23:48;3.60;;;2.10;;
43606;SDS011;29197;44.788;10.366;2023-07-31T16:26:38;2.70;;;1.85;;
43606;SDS011;29197;44.788;10.366;2023-07-31T16:29:27;4.93;;;2.13;;
43606;SDS011;29197;44.788;10.366;2023-07-31T16:32:16;2.95;;;1.60;;
43606;SDS011;29197;44.788;10.366;2023-07-31T16:35:05;2.58;;;1.48;;
43606;SDS011;29197;44.788;10.366;2023-07-31T16:37:54;2.17;;;1.52;;
43606;SDS011;29197;44.788;10.366;2023-07-31T16:40:43;2.95;;;1.80;;
43606;SDS011;29197;44.788;10.366;2023-07-31T16:43:35;4.50;;;1.63;;
43606;SDS011;29197;44.788;10.366;2023-07-31T16:46:24;2.47;;;1.50;;